Airfield :
LOGIN :

Register | Disclaimer

   EN    FR    IT 

 










Legend :    VFR   Marginal VFR   IFR   Intensive IFR   Very Intensive IFR
Visi :
Ceiling :
>= 8 km
>= 3000ft
5 to 8 km
1000 to 3000 ft
1500m to 5 km
500 to 1000 ft
800 to 1500m
200 to 500 ft
< 800m
< 200 ft
Symbols :   Thunderstorms  Fog  Heavy snow  Heavy precipitations  Wind > 20 kt
SIGMETs :     Misc.  Thunderstorms  Icing  Turbulence  Mountain Waves  Volcanic Ashes







- Airport Elevation : 364 ft
- Download approach charts


LFAQ - Albert Bray

CURRENT METAR :
  • 201630Z AUTO 30010KT 9000 -RA OVC004 06/06 Q0998 TEMPO 3000 RADZ

EXPIRED METARs :
  • 201600Z AUTO 29006KT 3500 -DZ BR OVC003 06/06 Q0998 TEMPO 9999 NSW BKN008
  • 201530Z AUTO 27006KT 4900 BR BKN004 OVC009 06/06 Q0997 TEMPO 9999 NSW BKN008
  • 201500Z AUTO 28004KT 5000 -DZ BR OVC003 06/06 Q0997 BECMG BKN008
  • 201430Z AUTO 24003KT 4400 BR OVC003 06/06 Q0997 BECMG 31010KT 9999 NSW BKN008
  • 201400Z AUTO VRB02KT 3200 -DZ BR OVC003 06/06 Q0997 BECMG 9999 NSW BKN012
  • 201330Z AUTO 17003KT 140V210 3000 BR OVC002 06/05 Q0997 BECMG 9999 NSW BKN012

TAF TAF LFAQ
Valid from the 20 at 15:00 until the 21 at 00:00 UTC


201400Z 2015/2024 20005KT 9999 OVC004
BECMG 2015/2017 31010KT BKN008
PROB40
TEMPO 2017/2022 3000 RADZ OVC003
No reported NOTAMs for that airfield.
2 SIGMETs reported for the Paris FIR (LFFF) :
 
Severe turbulence
LFFF SIGMET 6 VALID 201600/202000 LFPW
LFFF PARIS FIR/UIR SEV TURB FCST WI N4800 W00015 - N5000 W00015 - N5030 E00045 - N4800 E00245 - N4800 W00015 SFC/FL060 STNR WKN=
Severe turbulence
LFFF SIGMET 5 VALID 201300/201700 LFPW
LFFF PARIS FIR/UIR SEV TURB FCST WI N5030 E00045 - N5115 E00200 - N4945 E00515 - N4915 E00415 - N5030 E00045 FL180/310 MOV SE 50KT NC=



MET'MAP, your aeronautical weather chart ! - Copyright ORBIFLY December 2007 - Disclaimer

ORBIFLY MET'MAP TEAM :

Programming & Development : Alexandra Zaïnal
Concept & Development : Baudouin d'Aumeries
Co-Development & Prog : Marc-Olivier Méhu
Technical & hardware support : Manuel Goepfert

Contact : metmap@orbifly.com




SOURCES & CREDITS :

   NOAA